Terminal Aerodrome Forecast
Issued by NWS

Home | Current Version | Previous Version | Text Only | Print | Product List | Glossary On
Versions: 1 2 3 4 5 6 7 8 9 10 11 12 13 14 15 16 17
000
FTUS43 KGRB 291700
TAFATW
TAF
KATW 291726Z 2918/3018 19011KT P6SM BKN015
     FM300000 17008KT P6SM VCSH SCT020 BKN100
     FM300300 17007KT 5SM BR VCSH SCT020 OVC060 PROB30 3003/3006 2SM
      -SHRA BR BKN020
     FM300600 18005KT 4SM -SHRA BR SCT005 OVC012
      TEMPO 3006/3010 1 1/2SM TSRA BR BKN005CB
     FM301000 20005KT 3SM -SHRA BR OVC004
     FM301400 24006KT 5SM -SHRA BR OVC009=

USA.gov is the U.S. government's official web portal to all federal, state and local government web resources and services.